Time;durP1;ratioP1;P1;durP2;ratioP2;P2;SDS_P1;SDS_P2;PMS_P1;PMS_P2;Temp;Humidity;BMP_temperature;BMP_pressure;BME280_temperature;BME280_humidity;BME280_pressure;Samples;Min_cycle;Max_cycle;Signal;HPM_P1;HPM_P2
2022/11/07 00:02:40;;;;;;;5.75;2.88;;;;;;;;;;5091560;28;20039;-88
2022/11/07 00:05:08;;;;;;;5.10;2.92;;;;;;;;;;5093577;28;20049;-89
2022/11/07 00:07:36;;;;;;;5.57;2.25;;;;;;;;;;5074739;28;20572;-88
2022/11/07 00:10:08;;;;;;;4.55;2.38;;;;;;;;;;5077671;28;20048;-89
2022/11/07 00:12:36;;;;;;;5.20;2.88;;;;;;;;;;5093469;28;20043;-88
2022/11/07 00:15:05;;;;;;;4.75;2.25;;;;;;;;;;5075298;28;20089;-88
2022/11/07 00:17:32;;;;;;;5.70;2.65;;;;;;;;;;5083786;28;20058;-88
2022/11/07 00:20:00;;;;;;;6.38;2.65;;;;;;;;;;5095390;28;20042;-88
2022/11/07 00:22:56;;;;;;;4.78;2.75;;;;;;;;;;5077469;28;20067;-89
2022/11/07 00:25:24;;;;;;;6.30;2.60;;;;;;;;;;5092536;28;20040;-89
2022/11/07 00:27:56;;;;;;;4.13;2.15;;;;;;;;;;5076707;28;20036;-88
2022/11/07 00:30:24;;;;;;;6.10;2.67;;;;;;;;;;5091893;28;20186;-88
2022/11/07 00:32:57;;;;;;;6.10;2.47;;;;;;;;;;5092831;28;20047;-88
2022/11/07 00:35:26;;;;;;;5.75;2.55;;;;;;;;;;5093743;28;20032;-88
2022/11/07 00:37:55;;;;;;;5.10;2.65;;;;;;;;;;5093676;28;20051;-88
2022/11/07 00:40:22;;;;;;;6.47;3.20;;;;;;;;;;5093608;28;20074;-87
2022/11/07 00:42:50;;;;;;;4.40;2.70;;;;;;;;;;5091170;28;20274;-88
2022/11/07 00:45:18;;;;;;;6.38;2.70;;;;;;;;;;5090752;28;20043;-88
2022/11/07 00:47:46;;;;;;;4.63;2.35;;;;;;;;;;5090409;28;20099;-88
2022/11/07 00:50:18;;;;;;;5.18;2.70;;;;;;;;;;5078289;28;21004;-87
2022/11/07 00:52:46;;;;;;;4.97;2.40;;;;;;;;;;5093094;28;20039;-89
2022/11/07 00:55:18;;;;;;;6.70;3.33;;;;;;;;;;5094048;28;20036;-88
2022/11/07 00:57:46;;;;;;;8.43;3.13;;;;;;;;;;5091482;28;20667;-90
2022/11/07 01:00:14;;;;;;;5.82;3.05;;;;;;;;;;5073115;28;20051;-87
2022/11/07 01:02:42;;;;;;;7.25;2.70;;;;;;;;;;5094956;28;20039;-87
2022/11/07 01:05:10;;;;;;;6.18;2.78;;;;;;;;;;5094275;28;20028;-87
2022/11/07 01:07:39;;;;;;;6.93;3.03;;;;;;;;;;5076805;28;20871;-87
2022/11/07 01:10:07;;;;;;;4.75;2.50;;;;;;;;;;5075154;28;20051;-87
2022/11/07 01:12:40;;;;;;;4.90;2.63;;;;;;;;;;5074703;28;20044;-89
2022/11/07 01:15:09;;;;;;;5.00;2.45;;;;;;;;;;5093100;28;20078;-88
2022/11/07 01:18:00;;;;;;;5.53;2.45;;;;;;;;;;5080355;28;20517;-88
2022/11/07 01:20:28;;;;;;;4.60;2.88;;;;;;;;;;5094253;28;20048;-88
2022/11/07 01:22:56;;;;;;;6.10;2.70;;;;;;;;;;5079957;28;20044;-88
2022/11/07 01:25:25;;;;;;;6.30;2.38;;;;;;;;;;5095824;28;20690;-87
2022/11/07 01:27:52;;;;;;;5.43;2.58;;;;;;;;;;5093698;28;20048;-88
2022/11/07 01:30:20;;;;;;;6.18;2.63;;;;;;;;;;5096356;28;20040;-89
2022/11/07 01:32:48;;;;;;;10.07;2.80;;;;;;;;;;5080868;28;20048;-88
2022/11/07 01:35:16;;;;;;;6.22;2.60;;;;;;;;;;5097251;28;20109;-88
2022/11/07 01:37:48;;;;;;;4.68;3.03;;;;;;;;;;5081726;28;20254;-88
2022/11/07 01:40:16;;;;;;;4.55;2.50;;;;;;;;;;5081279;28;20079;-88
2022/11/07 01:42:48;;;;;;;5.07;2.40;;;;;;;;;;5096011;28;20517;-88
2022/11/07 01:45:26;;;;;;;6.63;2.80;;;;;;;;;;5095328;28;20109;-88
2022/11/07 01:47:57;;;;;;;5.40;2.20;;;;;;;;;;5078469;28;20043;-89
2022/11/07 01:50:26;;;;;;;6.13;2.25;;;;;;;;;;5082785;28;20123;-88
2022/11/07 01:53:18;;;;;;;6.57;2.45;;;;;;;;;;5080138;28;20043;-88
2022/11/07 01:55:46;;;;;;;6.60;2.83;;;;;;;;;;5098168;27;20143;-88
2022/11/07 01:58:14;;;;;;;5.30;2.40;;;;;;;;;;5097701;28;20479;-87
2022/11/07 02:00:42;;;;;;;4.38;2.40;;;;;;;;;;5096354;28;20131;-88
2022/11/07 02:03:16;;;;;;;4.90;2.40;;;;;;;;;;5093953;28;20050;-88
2022/11/07 02:05:55;;;;;;;4.40;2.63;;;;;;;;;;5095809;28;20036;-89
2022/11/07 02:08:32;;;;;;;6.30;2.65;;;;;;;;;;5096983;28;20894;-88
2022/11/07 02:11:30;;;;;;;6.45;2.85;;;;;;;;;;5093688;28;20093;-88
2022/11/07 02:14:22;;;;;;;5.85;2.88;;;;;;;;;;5098449;28;20483;-88
2022/11/07 02:16:50;;;;;;;4.07;2.47;;;;;;;;;;5060863;28;20040;-88
2022/11/07 02:19:28;;;;;;;7.38;3.03;;;;;;;;;;5099989;28;20089;-88
2022/11/07 02:22:32;;;;;;;4.15;2.10;;;;;;;;;;5080417;28;20056;-87
2022/11/07 02:25:07;;;;;;;5.55;2.55;;;;;;;;;;5098609;28;20043;-89
2022/11/07 02:27:36;;;;;;;4.88;2.50;;;;;;;;;;5096897;28;20038;-87
2022/11/07 02:30:12;;;;;;;5.63;2.30;;;;;;;;;;5081794;28;20044;-89
2022/11/07 02:33:18;;;;;;;7.30;3.25;;;;;;;;;;5087685;28;20514;-88
2022/11/07 02:35:49;;;;;;;4.57;2.50;;;;;;;;;;5079733;28;20479;-87
2022/11/07 02:38:18;;;;;;;6.30;2.25;;;;;;;;;;5081441;28;20047;-88
2022/11/07 02:40:50;;;;;;;4.85;2.58;;;;;;;;;;5082563;28;20039;-88
2022/11/07 02:43:20;;;;;;;5.70;2.60;;;;;;;;;;5098187;28;20836;-89
2022/11/07 02:45:49;;;;;;;4.72;2.75;;;;;;;;;;5093719;28;20949;-88
2022/11/07 02:48:17;;;;;;;6.18;2.55;;;;;;;;;;5096820;28;20044;-87
2022/11/07 02:50:44;;;;;;;6.32;2.13;;;;;;;;;;5079942;28;20083;-87
2022/11/07 02:53:12;;;;;;;6.63;2.38;;;;;;;;;;5095887;28;20036;-88
2022/11/07 02:55:40;;;;;;;6.05;2.33;;;;;;;;;;5079637;28;20040;-88
2022/11/07 02:58:12;;;;;;;4.72;2.55;;;;;;;;;;5076723;28;20050;-88
2022/11/07 03:00:45;;;;;;;6.97;2.47;;;;;;;;;;5085515;28;20073;-88
2022/11/07 03:03:12;;;;;;;5.72;2.45;;;;;;;;;;5094205;28;20055;-88
2022/11/07 03:05:44;;;;;;;6.80;2.38;;;;;;;;;;5077473;28;20048;-88
2022/11/07 03:08:12;;;;;;;5.53;2.40;;;;;;;;;;5075665;28;20078;-88
2022/11/07 03:10:44;;;;;;;5.32;2.50;;;;;;;;;;5077331;28;20047;-88
2022/11/07 03:13:12;;;;;;;7.35;2.70;;;;;;;;;;5095734;28;20039;-88
2022/11/07 03:15:40;;;;;;;5.68;2.30;;;;;;;;;;5090746;28;20036;-88
2022/11/07 03:18:35;;;;;;;4.30;2.17;;;;;;;;;;5096435;28;20454;-89
2022/11/07 03:21:03;;;;;;;5.40;2.30;;;;;;;;;;5061854;28;20052;-88
2022/11/07 03:23:31;;;;;;;5.93;2.28;;;;;;;;;;5077234;28;20040;-87
2022/11/07 03:26:04;;;;;;;6.78;2.53;;;;;;;;;;5096270;27;20043;-88
2022/11/07 03:28:33;;;;;;;5.57;2.30;;;;;;;;;;5097884;28;20040;-87
2022/11/07 03:31:01;;;;;;;5.20;2.10;;;;;;;;;;5095205;28;20039;-89
2022/11/07 03:33:30;;;;;;;7.75;2.45;;;;;;;;;;5077757;28;20603;-87
2022/11/07 03:36:02;;;;;;;5.75;2.13;;;;;;;;;;5096519;28;20040;-88
2022/11/07 03:38:30;;;;;;;5.10;2.55;;;;;;;;;;5094571;28;20043;-87
2022/11/07 03:41:22;;;;;;;9.13;2.45;;;;;;;;;;5096596;28;20077;-88
2022/11/07 03:43:50;;;;;;;11.02;2.65;;;;;;;;;;5094717;28;20096;-88
2022/11/07 03:46:18;;;;;;;6.47;2.65;;;;;;;;;;5092357;28;20056;-89
2022/11/07 03:48:46;;;;;;;4.93;2.20;;;;;;;;;;5084979;28;20407;-88
2022/11/07 03:51:43;;;;;;;7.82;2.60;;;;;;;;;;5069079;28;20069;-88
2022/11/07 03:54:10;;;;;;;9.40;2.70;;;;;;;;;;5077807;28;20496;-88
2022/11/07 03:56:38;;;;;;;6.68;2.60;;;;;;;;;;5097097;27;20134;-88
2022/11/07 03:59:10;;;;;;;6.30;2.47;;;;;;;;;;5076400;28;20116;-89
2022/11/07 04:01:44;;;;;;;8.15;2.53;;;;;;;;;;5092758;28;20579;-88
2022/11/07 04:04:18;;;;;;;6.45;2.72;;;;;;;;;;5095250;28;20082;-88
2022/11/07 04:06:51;;;;;;;6.78;2.50;;;;;;;;;;5076948;28;20081;-89
2022/11/07 04:09:18;;;;;;;4.30;2.20;;;;;;;;;;5097159;28;20918;-88
2022/11/07 04:17:25;;;;;;;6.05;2.20;;;;;;;;;;5095315;28;20098;-87
2022/11/07 04:19:54;;;;;;;5.25;2.70;;;;;;;;;;5059590;28;20036;-88
2022/11/07 04:22:23;;;;;;;7.55;2.60;;;;;;;;;;5079045;28;20032;-88
2022/11/07 04:27:41;;;;;;;5.07;2.47;;;;;;;;;;5094209;28;20480;-88
2022/11/07 04:28:16;;;;;;;4.43;2.22;;;;;;;;;;5094357;28;20044;-87
2022/11/07 04:30:44;;;;;;;4.40;2.20;;;;;;;;;;5061751;28;20052;-88
2022/11/07 04:33:13;;;;;;;5.28;2.35;;;;;;;;;;5074237;28;20151;-89
2022/11/07 04:35:42;;;;;;;6.75;2.60;;;;;;;;;;5080556;28;20043;-88
2022/11/07 04:38:14;;;;;;;5.85;2.70;;;;;;;;;;5091456;28;20043;-88
2022/11/07 04:40:42;;;;;;;7.85;2.30;;;;;;;;;;5077108;28;20040;-88
2022/11/07 04:43:14;;;;;;;5.70;2.85;;;;;;;;;;5092935;28;20047;-87
2022/11/07 04:45:42;;;;;;;5.18;2.38;;;;;;;;;;5093221;28;20039;-88
2022/11/07 04:48:11;;;;;;;5.25;2.40;;;;;;;;;;5092365;28;20477;-88
2022/11/07 04:51:02;;;;;;;7.20;2.60;;;;;;;;;;5096166;28;20031;-88
2022/11/07 04:53:30;;;;;;;7.47;2.35;;;;;;;;;;5094724;28;20037;-89
2022/11/07 04:56:02;;;;;;;5.53;2.28;;;;;;;;;;5095827;28;20035;-87
2022/11/07 04:58:30;;;;;;;3.97;2.13;;;;;;;;;;5093699;28;20128;-88
2022/11/07 05:00:58;;;;;;;6.35;2.40;;;;;;;;;;5092724;28;20505;-87
2022/11/07 05:03:26;;;;;;;4.68;2.30;;;;;;;;;;5092138;28;20043;-87
2022/11/07 05:05:54;;;;;;;6.95;2.47;;;;;;;;;;5081560;28;20056;-88
2022/11/07 05:08:46;;;;;;;5.28;2.63;;;;;;;;;;5084702;28;20047;-88
2022/11/07 05:11:19;;;;;;;5.68;2.28;;;;;;;;;;5080688;28;20110;-89
2022/11/07 05:13:46;;;;;;;8.90;2.78;;;;;;;;;;5070634;28;20052;-88
2022/11/07 05:16:20;;;;;;;7.40;2.45;;;;;;;;;;5073087;28;20517;-87
2022/11/07 05:18:48;;;;;;;6.30;2.55;;;;;;;;;;5082515;28;20126;-88
2022/11/07 05:21:16;;;;;;;8.32;2.30;;;;;;;;;;5072779;28;20068;-88
2022/11/07 05:23:45;;;;;;;7.28;2.33;;;;;;;;;;5097229;28;20052;-89
2022/11/07 05:26:12;;;;;;;5.45;2.08;;;;;;;;;;5097064;28;20555;-89
2022/11/07 05:28:40;;;;;;;8.65;2.60;;;;;;;;;;5080084;28;20230;-88
2022/11/07 05:31:14;;;;;;;7.22;2.38;;;;;;;;;;5097201;28;20058;-88
2022/11/07 05:33:47;;;;;;;4.15;2.13;;;;;;;;;;5082162;28;20044;-89
2022/11/07 05:36:18;;;;;;;12.73;2.63;;;;;;;;;;5100084;28;20212;-86
2022/11/07 05:38:52;;;;;;;7.53;2.20;;;;;;;;;;5097446;28;20043;-89
2022/11/07 05:41:25;;;;;;;7.90;2.38;;;;;;;;;;5099855;28;20384;-87
2022/11/07 05:43:58;;;;;;;7.70;2.33;;;;;;;;;;5077940;28;20529;-88
2022/11/07 05:46:26;;;;;;;7.55;2.58;;;;;;;;;;5093861;28;20089;-87
2022/11/07 05:49:18;;;;;;;8.07;2.45;;;;;;;;;;5092938;28;20503;-87
2022/11/07 05:51:52;;;;;;;8.20;2.50;;;;;;;;;;5077995;28;20039;-87
2022/11/07 05:54:20;;;;;;;7.85;2.38;;;;;;;;;;5063295;28;20036;-87
2022/11/07 05:56:51;;;;;;;4.65;2.15;;;;;;;;;;5098297;27;20043;-89
2022/11/07 05:59:23;;;;;;;8.05;2.40;;;;;;;;;;5058102;28;20048;-88
2022/11/07 06:01:59;;;;;;;11.07;2.60;;;;;;;;;;5064434;28;20136;-88
2022/11/07 06:04:26;;;;;;;6.20;2.53;;;;;;;;;;5092385;28;20201;-90
2022/11/07 06:06:54;;;;;;;8.75;2.28;;;;;;;;;;5079464;28;20044;-89
2022/11/07 06:09:22;;;;;;;7.72;2.35;;;;;;;;;;5078578;28;20035;-88
2022/11/07 06:11:54;;;;;;;6.40;2.33;;;;;;;;;;5077707;28;20043;-90
2022/11/07 06:17:16;;;;;;;8.93;2.92;;;;;;;;;;5083033;28;20047;-91
2022/11/07 06:19:44;;;;;;;6.22;2.28;;;;;;;;;;5100844;28;20093;-90
2022/11/07 06:22:12;;;;;;;4.45;1.80;;;;;;;;;;5081748;28;20062;-90
2022/11/07 06:24:40;;;;;;;7.20;2.30;;;;;;;;;;5073084;28;20044;-90
2022/11/07 06:27:08;;;;;;;6.72;2.60;;;;;;;;;;5079770;28;20040;-90
2022/11/07 06:30:00;;;;;;;6.90;2.28;;;;;;;;;;5099350;28;20043;-90
2022/11/07 06:32:52;;;;;;;7.13;2.53;;;;;;;;;;5073163;28;20384;-89
2022/11/07 06:35:44;;;;;;;8.77;2.63;;;;;;;;;;5097966;28;20031;-90
2022/11/07 06:38:14;;;;;;;10.00;2.85;;;;;;;;;;5077039;28;20411;-88
2022/11/07 06:40:42;;;;;;;4.50;2.30;;;;;;;;;;5098753;28;20044;-89
2022/11/07 06:43:17;;;;;;;6.82;2.55;;;;;;;;;;5087030;28;20127;-88
2022/11/07 06:45:46;;;;;;;8.05;2.80;;;;;;;;;;5097713;28;20044;-89
2022/11/07 06:51:09;;;;;;;8.57;2.58;;;;;;;;;;5093304;28;20039;-88
2022/11/07 06:53:37;;;;;;;7.40;2.33;;;;;;;;;;5091840;28;20056;-90
2022/11/07 06:56:07;;;;;;;7.78;2.42;;;;;;;;;;5096440;27;20085;-89
2022/11/07 06:58:35;;;;;;;11.20;2.70;;;;;;;;;;5078072;28;20043;-89
2022/11/07 07:01:04;;;;;;;9.77;4.55;;;;;;;;;;5092729;28;20063;-89
2022/11/07 07:03:32;;;;;;;6.07;2.58;;;;;;;;;;5091927;28;20038;-89
2022/11/07 07:06:06;;;;;;;8.48;2.95;;;;;;;;;;5064115;28;20452;-89
2022/11/07 07:08:40;;;;;;;7.00;2.38;;;;;;;;;;5064662;28;20052;-88
2022/11/07 07:11:11;;;;;;;8.35;2.83;;;;;;;;;;5080049;28;20125;-89
2022/11/07 07:13:38;;;;;;;5.70;2.75;;;;;;;;;;5061432;28;20050;-88
2022/11/07 07:16:07;;;;;;;5.43;2.33;;;;;;;;;;5077634;28;20048;-90
2022/11/07 07:18:34;;;;;;;8.80;2.75;;;;;;;;;;5095470;28;20043;-89
2022/11/07 07:21:06;;;;;;;7.45;2.80;;;;;;;;;;5095882;28;20081;-88
2022/11/07 07:23:34;;;;;;;4.97;2.40;;;;;;;;;;5078927;28;20044;-90
2022/11/07 07:26:27;;;;;;;12.75;2.72;;;;;;;;;;5078811;28;20082;-89
2022/11/07 07:31:46;;;;;;;9.05;2.65;;;;;;;;;;5087924;28;20044;-89
2022/11/07 07:34:14;;;;;;;7.03;2.75;;;;;;;;;;5090772;28;20047;-89
2022/11/07 07:36:42;;;;;;;7.00;2.67;;;;;;;;;;5077139;28;20376;-90
2022/11/07 07:39:34;;;;;;;7.50;2.65;;;;;;;;;;5075959;28;20036;-89
2022/11/07 07:42:02;;;;;;;7.20;2.70;;;;;;;;;;5063850;28;20421;-89
2022/11/07 07:44:35;;;;;;;7.15;2.58;;;;;;;;;;5093490;28;20130;-88
2022/11/07 07:47:08;;;;;;;8.32;2.70;;;;;;;;;;5074108;28;20069;-89
2022/11/07 07:49:42;;;;;;;6.20;2.38;;;;;;;;;;5076449;28;20073;-89
2022/11/07 07:52:10;;;;;;;8.63;3.03;;;;;;;;;;5091583;28;20119;-90
2022/11/07 07:54:38;;;;;;;12.80;3.13;;;;;;;;;;5072926;28;20089;-89
2022/11/07 07:57:06;;;;;;;6.60;2.70;;;;;;;;;;5095272;27;20071;-89
2022/11/07 07:59:34;;;;;;;9.80;2.63;;;;;;;;;;5095643;28;20035;-89
2022/11/07 08:02:02;;;;;;;8.60;3.70;;;;;;;;;;5074406;28;20067;-89
2022/11/07 08:04:54;;;;;;;9.95;2.58;;;;;;;;;;5094694;28;20131;-89
2022/11/07 08:07:26;;;;;;;7.00;2.85;;;;;;;;;;5076744;28;20064;-88
2022/11/07 08:10:18;;;;;;;8.50;2.75;;;;;;;;;;5075864;28;20065;-90
2022/11/07 08:13:06;;;;;;;11.63;3.03;;;;;;;;;;5049375;28;20624;-88
2022/11/07 08:15:34;;;;;;;11.60;2.50;;;;;;;;;;5091597;28;20059;-90
2022/11/07 08:18:07;;;;;;;8.73;2.70;;;;;;;;;;5074734;28;20075;-89
2022/11/07 08:20:34;;;;;;;6.78;2.42;;;;;;;;;;5075094;28;20768;-88
2022/11/07 08:23:04;;;;;;;7.75;2.38;;;;;;;;;;5094414;28;20077;-87
2022/11/07 08:25:38;;;;;;;7.97;2.58;;;;;;;;;;5079863;28;20126;-86
2022/11/07 08:28:07;;;;;;;11.02;2.33;;;;;;;;;;5085151;28;20925;-86
2022/11/07 08:30:34;;;;;;;4.75;2.25;;;;;;;;;;5074418;28;20123;-86
2022/11/07 08:33:02;;;;;;;8.55;2.75;;;;;;;;;;5092715;28;20122;-88
2022/11/07 08:35:55;;;;;;;8.90;2.58;;;;;;;;;;5084024;28;20032;-86
2022/11/07 08:38:22;;;;;;;6.53;2.33;;;;;;;;;;5069808;28;20058;-87
2022/11/07 08:40:51;;;;;;;6.15;2.10;;;;;;;;;;5096886;28;20089;-86
2022/11/07 08:43:18;;;;;;;5.22;2.42;;;;;;;;;;5098257;28;20031;-84
2022/11/07 08:45:47;;;;;;;8.65;2.60;;;;;;;;;;5083363;28;20044;-86
2022/11/07 08:48:16;;;;;;;7.65;2.55;;;;;;;;;;5095148;28;20280;-86
2022/11/07 08:51:13;;;;;;;6.78;2.50;;;;;;;;;;5098266;28;20069;-85
2022/11/07 08:53:40;;;;;;;9.52;2.50;;;;;;;;;;5095514;28;20044;-86
2022/11/07 08:56:09;;;;;;;7.35;2.75;;;;;;;;;;5097513;27;20042;-87
2022/11/07 08:58:36;;;;;;;7.63;2.42;;;;;;;;;;5077925;28;20857;-87
2022/11/07 09:01:09;;;;;;;6.78;2.30;;;;;;;;;;5097444;28;20115;-85
2022/11/07 09:03:42;;;;;;;10.27;2.72;;;;;;;;;;5101496;28;20036;-87
2022/11/07 09:06:20;;;;;;;12.38;2.70;;;;;;;;;;5063316;28;20150;-86
2022/11/07 09:08:52;;;;;;;11.63;2.85;;;;;;;;;;5076148;28;20055;-86
2022/11/07 09:11:20;;;;;;;9.20;2.60;;;;;;;;;;5077537;28;20044;-85
2022/11/07 09:13:48;;;;;;;6.57;2.95;;;;;;;;;;5082432;28;20406;-86
2022/11/07 09:16:21;;;;;;;5.57;2.47;;;;;;;;;;5095246;28;20093;-87
2022/11/07 09:18:53;;;;;;;7.32;2.60;;;;;;;;;;5100578;28;20036;-86
2022/11/07 09:21:47;;;;;;;12.25;2.88;;;;;;;;;;5099197;28;20807;-88
2022/11/07 09:24:14;;;;;;;10.77;2.92;;;;;;;;;;5080529;28;20051;-87
2022/11/07 09:26:42;;;;;;;7.43;2.60;;;;;;;;;;5076575;28;20035;-88
2022/11/07 09:29:14;;;;;;;11.82;2.63;;;;;;;;;;5089786;28;20682;-87
2022/11/07 09:31:42;;;;;;;9.40;2.90;;;;;;;;;;5096081;28;20050;-86
2022/11/07 09:34:34;;;;;;;4.80;2.45;;;;;;;;;;5098216;28;20475;-86
2022/11/07 09:37:06;;;;;;;8.13;2.55;;;;;;;;;;5055645;28;20044;-86
2022/11/07 09:39:34;;;;;;;4.57;2.28;;;;;;;;;;5080582;28;20032;-87
2022/11/07 09:42:17;;;;;;;9.20;2.40;;;;;;;;;;5080997;28;20510;-86
2022/11/07 09:44:55;;;;;;;9.15;2.53;;;;;;;;;;5085484;28;20044;-87
2022/11/07 09:47:36;;;;;;;6.05;2.28;;;;;;;;;;5081453;28;20036;-88
2022/11/07 09:50:26;;;;;;;12.85;2.97;;;;;;;;;;5097566;28;20043;-86
2022/11/07 09:53:30;;;;;;;7.50;2.60;;;;;;;;;;5067603;28;20131;-87
2022/11/07 09:56:00;;;;;;;9.52;2.45;;;;;;;;;;5062696;28;20040;-88
2022/11/07 09:58:41;;;;;;;6.85;2.65;;;;;;;;;;5094197;28;20085;-88
2022/11/07 10:01:15;;;;;;;6.85;1.90;;;;;;;;;;5095160;28;20062;-86
2022/11/07 10:03:43;;;;;;;4.47;2.10;;;;;;;;;;5095900;28;20040;-88
2022/11/07 10:06:34;;;;;;;8.25;2.17;;;;;;;;;;5080148;28;20032;-90
2022/11/07 10:09:52;;;;;;;10.98;2.17;;;;;;;;;;5095776;28;20044;-89
2022/11/07 10:12:42;;;;;;;8.95;2.05;;;;;;;;;;5002506;28;20034;-90
2022/11/07 10:15:20;;;;;;;7.05;2.40;;;;;;;;;;4994886;28;20053;-90
2022/11/07 10:17:52;;;;;;;7.40;2.10;;;;;;;;;;4981376;28;20104;-90
2022/11/07 10:20:54;;;;;;;7.13;2.28;;;;;;;;;;4976281;28;20046;-86
2022/11/07 10:24:08;;;;;;;8.75;3.00;;;;;;;;;;5004310;28;20061;-88
2022/11/07 10:26:42;;;;;;;9.65;2.40;;;;;;;;;;4945456;28;20530;-89
2022/11/07 10:29:16;;;;;;;10.18;2.70;;;;;;;;;;4926884;29;20079;-90
2022/11/07 10:31:53;;;;;;;8.73;2.70;;;;;;;;;;4943964;28;20062;-87
2022/11/07 10:34:30;;;;;;;9.63;3.60;;;;;;;;;;4948468;28;20220;-88
2022/11/07 10:36:58;;;;;;;16.17;3.03;;;;;;;;;;4931860;29;20067;-88
2022/11/07 10:39:29;;;;;;;9.05;2.70;;;;;;;;;;4946292;28;20185;-88
2022/11/07 10:42:04;;;;;;;9.55;2.70;;;;;;;;;;4947564;28;20054;-88
2022/11/07 10:44:33;;;;;;;11.43;3.50;;;;;;;;;;4984526;28;20073;-86
2022/11/07 10:47:14;;;;;;;10.50;3.45;;;;;;;;;;4996048;28;20034;-89
2022/11/07 10:50:13;;;;;;;6.75;2.80;;;;;;;;;;4986794;28;21942;-90
2022/11/07 10:52:55;;;;;;;8.35;2.55;;;;;;;;;;5004030;28;20056;-90
2022/11/07 10:55:23;;;;;;;9.00;2.90;;;;;;;;;;5000704;28;20046;-89
2022/11/07 10:58:22;;;;;;;9.75;3.45;;;;;;;;;;4982180;28;20046;-89
2022/11/07 11:01:02;;;;;;;6.93;2.70;;;;;;;;;;5006740;28;20053;-90
2022/11/07 11:03:42;;;;;;;14.00;2.95;;;;;;;;;;5052142;28;20139;-88
2022/11/07 11:06:34;;;;;;;6.47;2.60;;;;;;;;;;5062575;28;20040;-90
2022/11/07 11:09:34;;;;;;;14.27;3.20;;;;;;;;;;5056020;28;20043;-89
2022/11/07 11:12:05;;;;;;;6.60;2.80;;;;;;;;;;5097918;28;20039;-88
2022/11/07 11:15:05;;;;;;;9.43;3.15;;;;;;;;;;5099000;28;20523;-89
2022/11/07 11:17:32;;;;;;;5.10;2.38;;;;;;;;;;5094971;28;20043;-89
2022/11/07 11:20:00;;;;;;;7.90;2.10;;;;;;;;;;5097882;28;20035;-90
2022/11/07 11:22:28;;;;;;;6.72;2.47;;;;;;;;;;5092613;28;20043;-90
2022/11/07 11:25:14;;;;;;;6.55;2.20;;;;;;;;;;5074182;28;20047;-90
2022/11/07 11:27:45;;;;;;;6.50;2.40;;;;;;;;;;5068225;28;20044;-90
2022/11/07 11:30:16;;;;;;;10.20;3.08;;;;;;;;;;5085328;28;20052;-89
2022/11/07 11:32:44;;;;;;;7.75;2.65;;;;;;;;;;5082435;28;20040;-90
2022/11/07 11:35:31;;;;;;;8.20;2.53;;;;;;;;;;5094427;28;20093;-91
2022/11/07 11:38:21;;;;;;;7.45;2.50;;;;;;;;;;5098118;28;20031;-91
2022/11/07 11:41:06;;;;;;;10.55;2.83;;;;;;;;;;5078270;28;20036;-91
2022/11/07 11:44:19;;;;;;;7.50;3.00;;;;;;;;;;5086784;28;20040;-88
2022/11/07 11:47:32;;;;;;;8.75;2.45;;;;;;;;;;5066386;27;20032;-89
2022/11/07 11:50:16;;;;;;;13.95;2.78;;;;;;;;;;5047016;28;20048;-88
2022/11/07 11:52:44;;;;;;;8.88;2.60;;;;;;;;;;5057671;28;20132;-88
2022/11/07 11:55:18;;;;;;;8.82;2.53;;;;;;;;;;5096285;28;20043;-89
2022/11/07 11:58:05;;;;;;;9.88;3.10;;;;;;;;;;5098683;28;20044;-89
2022/11/07 12:00:52;;;;;;;7.88;2.30;;;;;;;;;;5095928;28;20031;-90
2022/11/07 12:03:47;;;;;;;10.52;3.13;;;;;;;;;;5075907;28;20478;-92
2022/11/07 12:06:35;;;;;;;9.75;3.00;;;;;;;;;;5072534;28;20058;-91
2022/11/07 12:09:14;;;;;;;10.05;2.95;;;;;;;;;;5074031;28;20093;-91
2022/11/07 12:12:05;;;;;;;9.18;2.75;;;;;;;;;;5066960;28;20541;-94
2022/11/07 12:14:40;;;;;;;10.43;3.40;;;;;;;;;;5065440;28;20118;-88
2022/11/07 12:17:25;;;;;;;7.10;2.70;;;;;;;;;;5064144;28;20036;-90
2022/11/07 12:20:09;;;;;;;7.82;2.80;;;;;;;;;;5066598;28;20043;-89
2022/11/07 12:22:56;;;;;;;9.23;2.92;;;;;;;;;;5085286;28;20040;-88
2022/11/07 12:25:40;;;;;;;5.65;2.50;;;;;;;;;;5061880;28;20074;-89
2022/11/07 12:28:34;;;;;;;14.65;3.40;;;;;;;;;;5079231;28;20120;-88
2022/11/07 12:31:26;;;;;;;5.20;2.55;;;;;;;;;;5075289;28;20036;-89
2022/11/07 12:34:34;;;;;;;;;;;;;;;;;;5073046;28;20142;-88
2022/11/07 12:37:21;;;;;;;10.60;3.00;;;;;;;;;;5094063;28;19950;-87
2022/11/07 12:40:16;;;;;;;6.95;2.50;;;;;;;;;;5089894;28;20147;-88
2022/11/07 12:43:25;;;;;;;11.57;2.90;;;;;;;;;;5077202;28;20495;-88
2022/11/07 12:46:37;;;;;;;6.07;2.38;;;;;;;;;;5076770;28;20077;-86
2022/11/07 12:49:04;;;;;;;7.30;2.47;;;;;;;;;;5075995;28;20040;-86
2022/11/07 12:52:14;;;;;;;14.23;2.95;;;;;;;;;;5063630;28;20036;-87
2022/11/07 12:54:56;;;;;;;8.88;3.17;;;;;;;;;;5070788;28;20043;-87
2022/11/07 12:57:32;;;;;;;16.90;2.65;;;;;;;;;;5095450;28;20118;-86
2022/11/07 13:00:23;;;;;;;9.02;2.50;;;;;;;;;;5074860;28;20384;-87
2022/11/07 13:03:18;;;;;;;8.25;2.60;;;;;;;;;;5095588;28;20050;-89
2022/11/07 13:05:56;;;;;;;8.70;2.85;;;;;;;;;;5086297;28;20020;-83
2022/11/07 13:08:55;;;;;;;8.63;2.95;;;;;;;;;;5061704;28;20498;-87
2022/11/07 13:11:47;;;;;;;8.10;2.75;;;;;;;;;;5094848;28;20135;-87
2022/11/07 13:14:32;;;;;;;6.68;2.72;;;;;;;;;;5090080;28;20449;-87
2022/11/07 13:17:00;;;;;;;7.80;2.55;;;;;;;;;;5097483;28;20486;-87
2022/11/07 13:19:36;;;;;;;8.77;2.75;;;;;;;;;;5063373;28;20051;-86
2022/11/07 13:22:17;;;;;;;7.57;2.83;;;;;;;;;;5076087;28;20138;-87
2022/11/07 13:25:05;;;;;;;5.97;2.58;;;;;;;;;;5077338;28;20126;-88
2022/11/07 13:27:40;;;;;;;7.70;2.80;;;;;;;;;;5063310;28;20038;-87
2022/11/07 13:30:38;;;;;;;11.13;3.00;;;;;;;;;;5082643;28;20135;-87
2022/11/07 13:33:28;;;;;;;8.85;2.45;;;;;;;;;;5079946;28;20152;-87
2022/11/07 13:36:26;;;;;;;9.15;2.17;;;;;;;;;;5072779;28;20386;-87
2022/11/07 13:39:05;;;;;;;7.10;2.60;;;;;;;;;;5079925;28;20081;-89
2022/11/07 13:41:44;;;;;;;9.23;2.33;;;;;;;;;;5080450;28;20031;-88
2022/11/07 13:44:24;;;;;;;6.72;2.85;;;;;;;;;;5080190;28;20055;-88
2022/11/07 13:46:55;;;;;;;10.88;3.00;;;;;;;;;;5094468;28;20644;-88
2022/11/07 13:49:36;;;;;;;6.13;2.30;;;;;;;;;;5083981;28;20044;-86
2022/11/07 13:52:19;;;;;;;10.55;2.45;;;;;;;;;;5068441;28;20047;-86
2022/11/07 13:54:54;;;;;;;8.00;2.40;;;;;;;;;;5093120;28;20042;-87
2022/11/07 13:57:44;;;;;;;5.72;2.35;;;;;;;;;;5097518;28;20039;-88
2022/11/07 14:00:14;;;;;;;7.88;2.50;;;;;;;;;;5062623;28;20071;-88
2022/11/07 14:02:54;;;;;;;6.55;2.38;;;;;;;;;;5066392;28;20039;-87
2022/11/07 14:05:37;;;;;;;8.43;2.55;;;;;;;;;;5079337;28;20062;-86
2022/11/07 14:08:20;;;;;;;8.05;2.30;;;;;;;;;;5086440;28;20032;-90
2022/11/07 14:10:53;;;;;;;5.70;2.20;;;;;;;;;;5080484;28;20063;-89
2022/11/07 14:13:30;;;;;;;6.68;2.50;;;;;;;;;;5092969;28;20119;-89
2022/11/07 14:16:17;;;;;;;7.68;2.17;;;;;;;;;;5098059;28;20040;-89
2022/11/07 14:18:55;;;;;;;7.20;2.22;;;;;;;;;;5097780;28;20048;-90
2022/11/07 14:21:35;;;;;;;6.72;2.30;;;;;;;;;;5078476;28;20043;-90
2022/11/07 14:24:30;;;;;;;10.32;2.28;;;;;;;;;;5078550;28;20081;-90
2022/11/07 14:27:12;;;;;;;7.63;2.53;;;;;;;;;;5079302;28;20495;-90
2022/11/07 14:29:51;;;;;;;10.63;2.63;;;;;;;;;;5093088;28;20071;-89
2022/11/07 14:32:18;;;;;;;12.48;3.00;;;;;;;;;;5078267;28;20042;-90
2022/11/07 14:35:10;;;;;;;11.60;2.30;;;;;;;;;;5099379;28;20035;-90
2022/11/07 14:37:42;;;;;;;12.88;2.50;;;;;;;;;;5080313;28;20036;-89
2022/11/07 14:40:10;;;;;;;9.60;2.40;;;;;;;;;;5091476;28;20109;-89
2022/11/07 14:43:02;;;;;;;5.63;2.40;;;;;;;;;;5062805;28;20035;-89
2022/11/07 14:45:31;;;;;;;10.25;2.60;;;;;;;;;;5082573;27;20036;-89
2022/11/07 14:48:27;;;;;;;9.25;2.40;;;;;;;;;;5066921;28;20043;-89
2022/11/07 14:50:55;;;;;;;8.73;2.50;;;;;;;;;;5079806;28;20031;-89
2022/11/07 14:53:39;;;;;;;5.90;2.45;;;;;;;;;;5079418;28;20043;-89
2022/11/07 14:56:14;;;;;;;8.77;2.50;;;;;;;;;;5066584;28;20036;-89
2022/11/07 14:58:42;;;;;;;8.55;2.53;;;;;;;;;;5097764;28;20035;-89
2022/11/07 15:01:24;;;;;;;6.97;2.30;;;;;;;;;;5097978;28;20045;-89
2022/11/07 15:03:56;;;;;;;13.63;2.42;;;;;;;;;;5098616;28;20063;-89
2022/11/07 15:06:32;;;;;;;7.70;2.28;;;;;;;;;;5098534;28;20094;-90
2022/11/07 15:09:05;;;;;;;7.78;2.28;;;;;;;;;;5065351;28;20092;-89
2022/11/07 15:11:35;;;;;;;10.88;2.80;;;;;;;;;;5099190;28;20040;-90
2022/11/07 15:14:05;;;;;;;7.45;2.35;;;;;;;;;;5097366;28;20055;-89
2022/11/07 15:16:45;;;;;;;8.40;2.50;;;;;;;;;;5096343;28;20137;-89
2022/11/07 15:19:20;;;;;;;7.45;2.60;;;;;;;;;;5078989;28;20446;-90
2022/11/07 15:21:51;;;;;;;12.90;2.60;;;;;;;;;;5083879;28;20042;-89
2022/11/07 15:24:43;;;;;;;9.23;2.40;;;;;;;;;;5067203;28;20043;-89
2022/11/07 15:27:12;;;;;;;8.93;2.35;;;;;;;;;;5082174;28;20028;-89
2022/11/07 15:30:01;;;;;;;9.85;2.70;;;;;;;;;;5090627;28;20059;-89
2022/11/07 15:32:34;;;;;;;14.30;2.97;;;;;;;;;;5074421;28;20046;-89
2022/11/07 15:35:26;;;;;;;11.63;3.25;;;;;;;;;;5070244;28;20055;-89
2022/11/07 15:38:22;;;;;;;8.80;2.63;;;;;;;;;;5084754;28;20040;-89
2022/11/07 15:40:50;;;;;;;10.10;3.08;;;;;;;;;;5083762;28;20097;-89
2022/11/07 15:43:19;;;;;;;11.48;2.63;;;;;;;;;;5080626;28;20442;-88
2022/11/07 15:45:51;;;;;;;8.57;3.13;;;;;;;;;;5075954;28;20093;-88
2022/11/07 15:48:21;;;;;;;12.95;3.55;;;;;;;;;;5081084;27;20035;-88
2022/11/07 15:50:48;;;;;;;6.28;2.47;;;;;;;;;;5083642;28;20047;-90